createdAt,value
2024-03-17T00:00:09.616Z,96.37
2024-03-17T00:01:09.608Z,96.52
2024-03-17T00:02:09.602Z,96.42
2024-03-17T00:03:09.593Z,96.31
2024-03-17T00:04:09.587Z,96.52
2024-03-17T00:05:09.589Z,96.52
2024-03-17T00:06:09.595Z,97.04
2024-03-17T00:07:09.566Z,97.04
2024-03-17T00:08:09.557Z,97.45
2024-03-17T00:09:09.547Z,97.04
2024-03-17T00:10:09.547Z,97.45
2024-03-17T00:11:09.538Z,97.35
2024-03-17T00:13:09.521Z,97.35
2024-03-17T00:14:09.512Z,97.45
2024-03-17T00:15:09.504Z,97.35
2024-03-17T00:16:09.493Z,97.67
2024-03-17T00:17:09.491Z,97.56
2024-03-17T00:18:09.484Z,97.67
2024-03-17T00:19:09.475Z,97.45
2024-03-17T00:20:09.467Z,97.45
2024-03-17T00:21:09.461Z,97.56
2024-03-17T00:22:09.451Z,97.67
2024-03-17T00:23:09.445Z,97.45
2024-03-17T00:24:09.443Z,97.14
2024-03-17T00:25:09.431Z,97.56
2024-03-17T00:26:09.424Z,97.50
2024-03-17T00:27:09.419Z,97.67
2024-03-17T00:28:09.407Z,97.71
2024-03-17T00:29:09.412Z,97.50
2024-03-17T00:30:09.394Z,97.50
2024-03-17T00:31:09.387Z,97.61
2024-03-17T00:32:09.381Z,97.30
2024-03-17T00:33:09.371Z,97.92
2024-03-17T00:34:09.367Z,98.13
2024-03-17T00:35:09.354Z,98.23
2024-03-17T00:36:09.345Z,98.33
2024-03-17T00:37:09.341Z,97.81
2024-03-17T00:38:09.341Z,98.23
2024-03-17T00:39:09.324Z,98.23
2024-03-17T00:40:09.313Z,98.13
2024-03-17T00:41:09.310Z,99.06
2024-03-17T00:42:09.301Z,99.16
2024-03-17T00:43:09.299Z,99.37
2024-03-17T00:44:09.286Z,98.96
2024-03-17T00:45:09.277Z,99.06
2024-03-17T00:46:09.273Z,99.16
2024-03-17T00:47:09.267Z,99.27
2024-03-17T00:48:09.256Z,99.16
2024-03-17T00:49:11.868Z,98.96
2024-03-17T00:50:09.251Z,99.27
2024-03-17T00:51:09.230Z,99.16
2024-03-17T00:52:09.234Z,99.27
2024-03-17T00:53:09.231Z,99.06
2024-03-17T00:54:09.238Z,98.13
2024-03-17T00:55:09.209Z,98.02
2024-03-17T00:56:09.191Z,98.33
2024-03-17T00:57:09.194Z,98.38
2024-03-17T00:58:09.178Z,98.48
2024-03-17T00:59:09.172Z,98.48
2024-03-17T01:00:09.174Z,98.27
2024-03-17T01:01:09.180Z,98.38
2024-03-17T01:02:09.143Z,98.27
2024-03-17T01:03:09.139Z,97.96
2024-03-17T01:04:09.129Z,98.38
2024-03-17T01:05:09.123Z,98.63
2024-03-17T01:06:09.115Z,98.07
2024-03-17T01:07:09.136Z,98.53
2024-03-17T01:08:09.096Z,98.53
2024-03-17T01:09:09.093Z,98.48
2024-03-17T01:10:09.101Z,98.38
2024-03-17T01:11:09.075Z,98.22
2024-03-17T01:12:09.091Z,98.22
2024-03-17T01:13:09.060Z,98.01
2024-03-17T01:14:09.048Z,98.48
2024-03-17T01:15:09.045Z,98.94
2024-03-17T01:16:09.039Z,99.26
2024-03-17T01:17:09.030Z,99.15
2024-03-17T01:18:09.019Z,99.36
2024-03-17T01:19:09.026Z,99.15
2024-03-17T01:20:09.009Z,99.05
2024-03-17T01:21:09.009Z,98.74
2024-03-17T01:22:08.990Z,99.05
2024-03-17T01:23:08.986Z,98.94
2024-03-17T01:24:08.982Z,99.11
2024-03-17T01:25:08.969Z,98.90
2024-03-17T01:26:08.961Z,98.90
2024-03-17T01:27:08.950Z,98.74
2024-03-17T01:28:08.942Z,99.05
2024-03-17T01:29:08.947Z,98.84
2024-03-17T01:30:08.924Z,98.43
2024-03-17T01:31:08.924Z,98.63
2024-03-17T01:32:08.910Z,98.94
2024-03-17T01:33:08.918Z,99.05
2024-03-17T01:34:08.898Z,99.15
2024-03-17T01:35:08.898Z,99.15
2024-03-17T01:36:08.886Z,99.46
2024-03-17T01:37:08.875Z,97.91
2024-03-17T01:38:08.862Z,97.95
2024-03-17T01:39:08.856Z,97.64
2024-03-17T01:40:08.878Z,98.05
2024-03-17T01:42:08.831Z,99.35
2024-03-17T01:43:08.823Z,98.62
2024-03-17T01:44:08.823Z,98.99
2024-03-17T01:45:08.806Z,99.76
2024-03-17T01:46:08.801Z,99.66
2024-03-17T01:47:08.788Z,99.76
2024-03-17T01:48:08.787Z,99.55
2024-03-17T01:49:08.774Z,99.76
2024-03-17T01:50:08.774Z,99.66
2024-03-17T01:51:08.763Z,99.24
2024-03-17T01:52:08.751Z,98.93
2024-03-17T01:53:08.741Z,99.14
2024-03-17T01:54:08.737Z,99.24
2024-03-17T01:55:08.724Z,99.35
2024-03-17T01:56:08.719Z,99.14
2024-03-17T01:57:08.708Z,98.72
2024-03-17T01:58:08.702Z,99.14
2024-03-17T01:59:08.692Z,99.04
2024-03-17T02:01:08.730Z,98.99
2024-03-17T02:02:08.679Z,99.14
2024-03-17T02:03:08.663Z,99.14
2024-03-17T02:04:08.660Z,99.24
2024-03-17T02:05:08.648Z,99.66
2024-03-17T02:06:08.637Z,99.14
2024-03-17T02:07:08.627Z,98.41
2024-03-17T02:08:08.621Z,98.31
2024-03-17T02:09:08.615Z,97.94
2024-03-17T02:10:08.671Z,98.35
2024-03-17T02:11:08.598Z,98.46
2024-03-17T02:12:08.585Z,99.40
2024-03-17T02:13:08.589Z,99.04
2024-03-17T02:14:08.571Z,98.93
2024-03-17T02:15:08.560Z,99.08
2024-03-17T02:16:08.558Z,99.08
2024-03-17T02:17:08.547Z,99.14
2024-03-17T02:18:08.542Z,99.18
2024-03-17T02:19:08.532Z,99.14
2024-03-17T02:20:08.521Z,99.29
2024-03-17T02:21:08.522Z,99.50
2024-03-17T02:22:08.510Z,99.29
2024-03-17T02:23:08.500Z,99.29
2024-03-17T02:24:08.487Z,99.29
2024-03-17T02:25:08.491Z,99.71
2024-03-17T02:26:08.474Z,99.99
2024-03-17T02:27:08.465Z,99.99
2024-03-17T02:28:08.472Z,99.99
2024-03-17T02:29:08.448Z,99.99
2024-03-17T02:30:08.437Z,99.99
2024-03-17T02:31:08.458Z,99.99
2024-03-17T02:32:08.420Z,99.99
2024-03-17T02:33:08.418Z,99.99
2024-03-17T02:34:08.408Z,99.99
2024-03-17T02:35:08.399Z,99.99
2024-03-17T02:36:08.388Z,99.99
2024-03-17T02:37:08.387Z,99.99
2024-03-17T02:38:08.374Z,99.99
2024-03-17T02:39:08.365Z,99.99
2024-03-17T02:40:08.376Z,99.99
2024-03-17T02:41:08.351Z,99.99
2024-03-17T02:42:08.339Z,99.99
2024-03-17T02:43:08.338Z,99.99
2024-03-17T02:44:08.324Z,99.99
2024-03-17T02:45:08.317Z,99.99
2024-03-17T02:46:08.325Z,99.99
2024-03-17T02:47:08.303Z,99.99
2024-03-17T02:48:08.289Z,99.99
2024-03-17T02:49:08.314Z,99.99
2024-03-17T02:50:08.289Z,99.99
2024-03-17T02:51:08.276Z,99.99
2024-03-17T02:52:08.312Z,99.99
2024-03-17T02:53:08.253Z,99.99
2024-03-17T02:54:13.104Z,99.99
2024-03-17T02:55:08.260Z,99.99
2024-03-17T02:56:08.219Z,99.99
2024-03-17T02:57:08.213Z,99.99
2024-03-17T02:58:08.227Z,99.99
2024-03-17T02:59:08.194Z,99.99
2024-03-17T03:00:08.188Z,99.99
2024-03-17T03:01:08.204Z,99.99
2024-03-17T03:02:08.169Z,99.99
2024-03-17T03:03:08.171Z,99.99
2024-03-17T03:04:08.221Z,99.99
2024-03-17T03:05:08.148Z,99.99
2024-03-17T03:06:08.133Z,99.99
2024-03-17T03:07:08.147Z,99.99
2024-03-17T03:08:08.119Z,99.99
2024-03-17T03:09:08.114Z,99.99
2024-03-17T03:10:08.162Z,99.99
2024-03-17T03:11:08.094Z,99.99
2024-03-17T03:12:08.078Z,99.99
2024-03-17T03:13:08.117Z,99.99
2024-03-17T03:14:08.072Z,99.99
2024-03-17T03:15:08.063Z,99.99
2024-03-17T03:16:08.091Z,99.99
2024-03-17T03:17:08.059Z,99.99
2024-03-17T03:19:08.054Z,99.99
2024-03-17T03:20:08.017Z,99.99
2024-03-17T03:21:08.003Z,99.99
2024-03-17T03:22:08.029Z,99.99
2024-03-17T03:23:07.987Z,99.99
2024-03-17T03:24:07.980Z,99.99
2024-03-17T03:25:07.986Z,99.99
2024-03-17T03:26:07.962Z,99.99
2024-03-17T03:27:07.960Z,99.99
2024-03-17T03:28:07.993Z,99.99
2024-03-17T03:29:07.940Z,99.99
2024-03-17T03:30:07.933Z,99.99
2024-03-17T03:31:07.964Z,99.99
2024-03-17T03:32:07.922Z,99.99
2024-03-17T03:33:07.970Z,99.99
2024-03-17T03:34:07.932Z,99.99
2024-03-17T03:35:07.884Z,99.99
2024-03-17T03:36:07.872Z,99.99
2024-03-17T03:37:07.883Z,99.99
2024-03-17T03:38:07.855Z,99.99
2024-03-17T03:39:07.845Z,99.99
2024-03-17T03:40:07.892Z,99.99
2024-03-17T03:41:07.828Z,99.99
2024-03-17T03:42:07.820Z,99.99
2024-03-17T03:43:07.842Z,99.99
2024-03-17T03:44:07.803Z,99.99
2024-03-17T03:45:07.789Z,99.99
2024-03-17T03:46:07.820Z,99.99
2024-03-17T03:47:07.777Z,99.99
2024-03-17T03:48:07.779Z,99.99
2024-03-17T03:49:07.810Z,99.99
2024-03-17T03:50:07.760Z,99.99
2024-03-17T03:51:07.746Z,99.99
2024-03-17T03:52:07.739Z,99.99
2024-03-17T03:53:07.723Z,99.99
2024-03-17T03:54:07.715Z,99.99
2024-03-17T03:55:07.737Z,99.99
2024-03-17T03:56:07.699Z,99.99
2024-03-17T03:57:07.723Z,99.99
2024-03-17T03:58:07.689Z,99.99
2024-03-17T03:59:07.683Z,99.99
2024-03-17T04:00:07.662Z,99.99
2024-03-17T04:01:07.665Z,99.99
2024-03-17T04:02:07.646Z,99.99
2024-03-17T04:03:07.640Z,99.99
2024-03-17T04:04:07.655Z,99.99
2024-03-17T04:05:07.622Z,99.99
2024-03-17T04:06:07.612Z,99.99
2024-03-17T04:07:07.607Z,99.99
2024-03-17T04:08:07.592Z,99.99
2024-03-17T04:09:07.593Z,99.99
2024-03-17T04:10:07.694Z,99.99
2024-03-17T04:11:07.568Z,99.99
2024-03-17T04:12:07.563Z,99.99
2024-03-17T04:13:07.556Z,99.99
2024-03-17T04:14:07.540Z,99.99
2024-03-17T04:15:07.533Z,99.99
2024-03-17T04:16:07.553Z,99.99
2024-03-17T04:17:07.516Z,99.99
2024-03-17T04:18:07.505Z,99.99
2024-03-17T04:19:07.504Z,99.99
2024-03-17T04:21:07.485Z,99.99
2024-03-17T04:22:07.476Z,99.99
2024-03-17T04:23:07.461Z,99.99
2024-03-17T04:24:07.454Z,99.99
2024-03-17T04:25:07.454Z,99.99
2024-03-17T04:26:07.435Z,99.99
2024-03-17T04:27:07.425Z,99.99
2024-03-17T04:28:07.424Z,99.99
2024-03-17T04:29:07.406Z,99.99
2024-03-17T04:30:07.397Z,99.99
2024-03-17T04:31:07.410Z,99.99
2024-03-17T04:32:07.380Z,99.99
2024-03-17T04:33:07.373Z,99.99
2024-03-17T04:34:07.382Z,99.99
2024-03-17T04:35:07.355Z,99.99
2024-03-17T04:36:07.346Z,99.99
2024-03-17T04:37:07.344Z,99.99
2024-03-17T04:38:07.329Z,99.99
2024-03-17T04:39:07.320Z,99.99
2024-03-17T04:40:07.315Z,99.99
2024-03-17T04:41:07.302Z,99.99
2024-03-17T04:42:07.292Z,99.99
2024-03-17T04:43:07.296Z,99.99
2024-03-17T04:44:07.275Z,99.99
2024-03-17T04:45:07.269Z,99.99
2024-03-17T04:46:07.321Z,99.99
2024-03-17T04:47:07.255Z,99.99
2024-03-17T04:48:07.241Z,99.99
2024-03-17T04:49:07.233Z,99.99
2024-03-17T04:50:07.220Z,99.99
2024-03-17T04:51:07.214Z,99.99
2024-03-17T04:52:07.207Z,99.99
2024-03-17T04:53:07.192Z,99.99
2024-03-17T04:54:07.186Z,99.99
2024-03-17T04:55:07.190Z,99.99
2024-03-17T04:56:07.192Z,99.99
2024-03-17T04:57:07.159Z,99.99
2024-03-17T04:58:07.201Z,99.99
2024-03-17T04:59:07.139Z,99.99
2024-03-17T05:00:07.132Z,99.99
2024-03-17T05:01:07.123Z,99.99
2024-03-17T05:02:07.115Z,99.99
2024-03-17T05:03:07.108Z,99.99
2024-03-17T05:04:07.101Z,99.99
2024-03-17T05:05:07.087Z,99.99
2024-03-17T05:06:07.080Z,99.99
2024-03-17T05:07:07.084Z,99.99
2024-03-17T05:08:07.061Z,99.99
2024-03-17T05:09:07.066Z,99.99
2024-03-17T05:10:07.627Z,99.99
2024-03-17T05:11:07.046Z,99.99
2024-03-17T05:12:07.027Z,99.99
2024-03-17T05:13:07.016Z,99.99
2024-03-17T05:14:07.008Z,99.99
2024-03-17T05:15:07.000Z,99.99
2024-03-17T05:16:06.988Z,99.99
2024-03-17T05:17:06.981Z,99.99
2024-03-17T05:18:06.973Z,99.99
2024-03-17T05:19:06.962Z,99.99
2024-03-17T05:20:06.959Z,99.99
2024-03-17T05:21:06.946Z,99.99
2024-03-17T05:22:06.955Z,99.99
2024-03-17T05:23:06.926Z,99.99
2024-03-17T05:24:06.919Z,99.99
2024-03-17T05:25:06.910Z,99.99
2024-03-17T05:26:06.902Z,99.99
2024-03-17T05:27:06.903Z,99.99
2024-03-17T05:28:06.903Z,99.99
2024-03-17T05:29:06.874Z,99.99
2024-03-17T05:30:06.868Z,99.99
2024-03-17T05:31:06.862Z,99.99
2024-03-17T05:32:06.846Z,99.99
2024-03-17T05:33:06.838Z,99.99
2024-03-17T05:34:06.832Z,99.99
2024-03-17T05:35:06.828Z,99.99
2024-03-17T05:36:06.810Z,99.99
2024-03-17T05:37:09.676Z,99.99
2024-03-17T05:38:06.801Z,99.99
2024-03-17T05:39:06.784Z,99.99
2024-03-17T05:40:06.776Z,99.99
2024-03-17T05:41:06.768Z,99.99
2024-03-17T05:42:06.760Z,99.99
2024-03-17T05:43:06.750Z,99.99
2024-03-17T05:44:06.752Z,99.99
2024-03-17T05:45:06.731Z,99.99
2024-03-17T05:46:06.723Z,99.99
2024-03-17T05:47:06.715Z,99.99
2024-03-17T05:48:06.708Z,99.99
2024-03-17T05:49:06.696Z,99.99
2024-03-17T05:50:06.685Z,99.99
2024-03-17T05:51:06.679Z,99.99
2024-03-17T05:52:06.675Z,99.99
2024-03-17T05:53:06.662Z,99.99
2024-03-17T05:54:06.659Z,99.99
2024-03-17T05:55:06.642Z,99.99
2024-03-17T05:56:06.633Z,99.99
2024-03-17T05:57:06.625Z,99.99
2024-03-17T05:58:06.618Z,99.99
2024-03-17T05:59:06.607Z,99.99
2024-03-17T06:00:06.602Z,99.99
2024-03-17T06:01:06.589Z,99.99
2024-03-17T06:02:06.599Z,99.99
2024-03-17T06:03:06.580Z,99.99
2024-03-17T06:04:08.605Z,99.99
2024-03-17T06:05:06.576Z,99.99
2024-03-17T06:06:06.544Z,99.99
2024-03-17T06:07:06.537Z,99.99
2024-03-17T06:08:06.551Z,99.99
2024-03-17T06:09:06.520Z,99.99
2024-03-17T06:10:07.971Z,99.99
2024-03-17T06:11:06.514Z,99.99
2024-03-17T06:12:06.497Z,99.99
2024-03-17T06:13:06.478Z,99.99
2024-03-17T06:14:06.493Z,99.99
2024-03-17T06:15:06.464Z,99.99
2024-03-17T06:16:06.481Z,99.99
2024-03-17T06:17:06.449Z,99.99
2024-03-17T06:18:06.449Z,99.99
2024-03-17T06:19:06.430Z,99.99
2024-03-17T06:20:06.420Z,99.99
2024-03-17T06:21:06.415Z,99.99
2024-03-17T06:22:06.406Z,99.99
2024-03-17T06:23:06.396Z,99.99
2024-03-17T06:24:06.392Z,99.99
2024-03-17T06:25:06.383Z,99.99
2024-03-17T06:26:06.373Z,99.99
2024-03-17T06:27:06.362Z,99.99
2024-03-17T06:28:06.358Z,99.99
2024-03-17T06:29:06.348Z,99.99
2024-03-17T06:30:06.338Z,99.99
2024-03-17T06:31:06.328Z,99.99
2024-03-17T06:32:06.320Z,99.99
2024-03-17T06:33:06.311Z,99.99
2024-03-17T06:34:06.304Z,99.99
2024-03-17T06:35:06.293Z,99.99
2024-03-17T06:36:06.288Z,99.99
2024-03-17T06:37:06.282Z,99.99
2024-03-17T06:38:06.270Z,99.74
2024-03-17T06:39:06.260Z,99.12
2024-03-17T06:40:06.248Z,99.22
2024-03-17T06:41:06.252Z,98.24
2024-03-17T06:42:06.236Z,97.41
2024-03-17T06:43:06.230Z,97.52
2024-03-17T06:44:06.219Z,97.72
2024-03-17T06:45:06.209Z,96.95
2024-03-17T06:46:06.206Z,96.95
2024-03-17T06:47:06.214Z,96.23
2024-03-17T06:48:06.185Z,95.71
2024-03-17T06:49:06.180Z,94.21
2024-03-17T06:50:06.168Z,93.70
2024-03-17T06:51:06.163Z,93.28
2024-03-17T06:52:06.154Z,92.66
2024-03-17T06:53:06.145Z,93.18
2024-03-17T06:54:06.136Z,92.61
2024-03-17T06:55:06.127Z,92.45
2024-03-17T06:56:06.123Z,92.51
2024-03-17T06:57:06.113Z,92.30
2024-03-17T06:58:06.106Z,92.30
2024-03-17T06:59:06.099Z,92.10
2024-03-17T07:00:06.093Z,91.83
2024-03-17T07:01:06.078Z,91.89
2024-03-17T07:02:06.073Z,91.89
2024-03-17T07:03:06.074Z,91.99
2024-03-17T07:04:06.065Z,91.16
2024-03-17T07:05:06.066Z,91.99
2024-03-17T07:06:06.058Z,91.78
2024-03-17T07:07:06.034Z,92.20
2024-03-17T07:08:06.026Z,92.05
2024-03-17T07:09:06.038Z,91.53
2024-03-17T07:10:06.030Z,91.02
2024-03-17T07:11:06.016Z,90.81
2024-03-17T07:12:06.016Z,91.02
2024-03-17T07:13:05.998Z,91.02
2024-03-17T07:14:07.773Z,90.91
2024-03-17T07:15:05.974Z,90.39
2024-03-17T07:16:05.975Z,90.29
2024-03-17T07:17:05.964Z,90.08
2024-03-17T07:18:06.077Z,90.39
2024-03-17T07:19:05.949Z,90.19
2024-03-17T07:20:05.939Z,90.50
2024-03-17T07:21:05.936Z,90.39
2024-03-17T07:22:05.930Z,90.19
2024-03-17T07:23:05.922Z,90.29
2024-03-17T07:24:05.925Z,90.50
2024-03-17T07:25:05.901Z,90.50
2024-03-17T07:26:05.895Z,90.39
2024-03-17T07:28:05.879Z,90.75
2024-03-17T07:29:05.873Z,90.44
2024-03-17T07:30:05.870Z,90.33
2024-03-17T07:31:05.863Z,90.75
2024-03-17T07:32:05.853Z,90.44
2024-03-17T07:33:05.845Z,90.81
2024-03-17T07:34:05.837Z,91.06
2024-03-17T07:35:05.831Z,90.85
2024-03-17T07:37:05.817Z,91.12
2024-03-17T07:38:05.810Z,91.02
2024-03-17T07:39:05.802Z,90.81
2024-03-17T07:40:05.797Z,90.60
2024-03-17T07:41:05.787Z,90.19
2024-03-17T07:42:05.788Z,89.98
2024-03-17T07:43:05.769Z,90.29
2024-03-17T07:44:05.769Z,89.94
2024-03-17T07:45:05.758Z,89.21
2024-03-17T07:46:05.754Z,89.21
2024-03-17T07:47:08.218Z,89.52
2024-03-17T07:48:05.739Z,89.73
2024-03-17T07:49:05.731Z,89.17
2024-03-17T07:50:05.723Z,89.17
2024-03-17T07:51:05.719Z,89.38
2024-03-17T07:52:05.717Z,88.65
2024-03-17T07:53:05.704Z,88.20
2024-03-17T07:54:05.697Z,89.13
2024-03-17T07:55:05.686Z,88.06
2024-03-17T07:56:05.681Z,87.33
2024-03-17T07:57:05.674Z,88.06
2024-03-17T07:58:05.666Z,86.98
2024-03-17T07:59:05.665Z,87.29
2024-03-17T08:00:05.649Z,86.57
2024-03-17T08:01:05.649Z,86.57
2024-03-17T08:02:05.641Z,86.11
2024-03-17T08:03:05.637Z,86.42
2024-03-17T08:04:05.624Z,85.49
2024-03-17T08:05:05.637Z,85.60
2024-03-17T08:06:05.629Z,85.28
2024-03-17T08:07:05.607Z,84.31
2024-03-17T08:08:05.598Z,84.97
2024-03-17T08:09:05.592Z,84.25
2024-03-17T08:10:05.581Z,84.15
2024-03-17T08:11:05.581Z,84.15
2024-03-17T08:12:05.579Z,84.63
2024-03-17T08:13:05.567Z,84.83
2024-03-17T08:14:05.557Z,84.11
2024-03-17T08:15:05.564Z,84.28
2024-03-17T08:16:05.545Z,83.86
2024-03-17T08:17:05.541Z,82.83
2024-03-17T08:18:05.551Z,82.83
2024-03-17T08:19:05.531Z,84.13
2024-03-17T08:20:05.527Z,84.23
2024-03-17T08:21:05.520Z,81.96
2024-03-17T08:22:05.509Z,82.45
2024-03-17T08:23:05.501Z,82.03
2024-03-17T08:24:05.513Z,82.30
2024-03-17T08:25:05.488Z,83.23
2024-03-17T08:26:05.499Z,82.47
2024-03-17T08:27:05.483Z,80.30
2024-03-17T08:28:05.486Z,80.82
2024-03-17T08:29:05.470Z,81.03
2024-03-17T08:30:05.466Z,81.23
2024-03-17T08:31:05.474Z,81.61
2024-03-17T08:32:05.450Z,81.40
2024-03-17T08:33:05.449Z,80.16
2024-03-17T08:34:05.444Z,79.96
2024-03-17T08:35:05.431Z,79.96
2024-03-17T08:36:05.423Z,80.79
2024-03-17T08:37:05.440Z,80.68
2024-03-17T08:38:05.412Z,80.58
2024-03-17T08:39:05.409Z,80.79
2024-03-17T08:40:05.399Z,80.33
2024-03-17T08:41:05.397Z,80.75
2024-03-17T08:42:05.399Z,80.54
2024-03-17T08:43:05.387Z,80.85
2024-03-17T08:44:05.380Z,80.44
2024-03-17T08:45:07.187Z,79.79
2024-03-17T08:46:05.372Z,80.02
2024-03-17T08:47:05.371Z,79.88
2024-03-17T08:48:05.365Z,80.51
2024-03-17T08:49:05.362Z,79.27
2024-03-17T08:50:05.351Z,80.19
2024-03-17T08:51:05.357Z,79.79
2024-03-17T08:52:05.348Z,78.75
2024-03-17T08:53:05.346Z,79.16
2024-03-17T08:54:05.373Z,78.92
2024-03-17T08:55:05.334Z,79.16
2024-03-17T08:56:05.329Z,79.47
2024-03-17T08:57:05.323Z,80.09
2024-03-17T08:58:05.322Z,79.47
2024-03-17T08:59:05.319Z,79.06
2024-03-17T09:00:05.324Z,78.79
2024-03-17T09:01:05.312Z,78.96
2024-03-17T09:02:05.314Z,80.40
2024-03-17T09:03:05.312Z,79.99
2024-03-17T09:04:05.294Z,79.06
2024-03-17T09:05:05.296Z,78.82
2024-03-17T09:06:05.302Z,77.89
2024-03-17T09:07:05.281Z,77.38
2024-03-17T09:08:05.289Z,77.79
2024-03-17T09:09:05.293Z,79.13
2024-03-17T09:10:05.281Z,78.27
2024-03-17T09:11:05.271Z,78.68
2024-03-17T09:12:05.268Z,77.14
2024-03-17T09:13:05.275Z,77.20
2024-03-17T09:14:05.258Z,77.20
2024-03-17T09:15:05.257Z,77.17
2024-03-17T09:16:05.266Z,76.59
2024-03-17T09:17:05.258Z,75.97
2024-03-17T09:18:05.245Z,75.83
2024-03-17T09:19:05.243Z,75.87
2024-03-17T09:20:05.246Z,76.79
2024-03-17T09:21:05.235Z,76.79
2024-03-17T09:22:05.234Z,76.69
2024-03-17T09:23:05.229Z,76.38
2024-03-17T09:24:05.223Z,76.38
2024-03-17T09:25:05.222Z,76.59
2024-03-17T09:26:05.217Z,77.72
2024-03-17T09:27:05.231Z,77.10
2024-03-17T09:28:05.209Z,77.00
2024-03-17T09:29:05.208Z,76.59
2024-03-17T09:30:05.204Z,76.86
2024-03-17T09:31:05.227Z,75.70
2024-03-17T09:32:05.199Z,75.73
2024-03-17T09:33:05.199Z,74.57
2024-03-17T09:34:05.204Z,73.95
2024-03-17T09:35:05.192Z,74.80
2024-03-17T09:36:05.189Z,71.86
2024-03-17T09:37:05.190Z,70.98
2024-03-17T09:38:05.185Z,69.93
2024-03-17T09:39:05.196Z,70.20
2024-03-17T09:40:05.178Z,67.21
2024-03-17T09:41:05.184Z,66.49
2024-03-17T09:42:05.180Z,67.34
2024-03-17T09:43:05.180Z,67.07
2024-03-17T09:44:05.178Z,66.12
2024-03-17T09:45:05.179Z,65.07
2024-03-17T09:46:05.179Z,66.25
2024-03-17T09:47:05.180Z,66.56
2024-03-17T09:48:05.181Z,65.03
2024-03-17T09:49:05.186Z,65.26
2024-03-17T09:50:05.184Z,66.93
2024-03-17T09:51:05.187Z,67.03
2024-03-17T09:52:05.188Z,66.86
2024-03-17T09:53:05.190Z,65.13
2024-03-17T09:54:05.205Z,65.74
2024-03-17T09:55:05.196Z,65.64
2024-03-17T09:56:05.201Z,65.44
2024-03-17T09:57:05.228Z,64.52
2024-03-17T09:58:05.204Z,66.28
2024-03-17T09:59:05.219Z,67.58
2024-03-17T10:00:05.206Z,66.09
2024-03-17T10:01:05.218Z,64.90
2024-03-17T10:02:05.219Z,64.49
2024-03-17T10:03:05.229Z,64.90
2024-03-17T10:04:05.228Z,65.03
2024-03-17T10:05:05.227Z,65.84
2024-03-17T10:06:05.230Z,65.64
2024-03-17T10:07:05.235Z,65.03
2024-03-17T10:08:05.236Z,66.18
2024-03-17T10:09:05.250Z,66.80
2024-03-17T10:10:05.250Z,66.49
2024-03-17T10:11:05.252Z,66.59
2024-03-17T10:12:05.252Z,67.00
2024-03-17T10:13:05.255Z,67.10
2024-03-17T10:14:05.258Z,67.07
2024-03-17T10:15:05.265Z,66.97
2024-03-17T10:16:05.283Z,66.46
2024-03-17T10:17:05.272Z,64.90
2024-03-17T10:18:05.284Z,65.71
2024-03-17T10:19:05.280Z,65.78
2024-03-17T10:20:05.305Z,64.43
2024-03-17T10:21:05.292Z,64.25
2024-03-17T10:22:05.292Z,64.79
2024-03-17T10:23:05.290Z,65.81
2024-03-17T10:24:05.296Z,66.09
2024-03-17T10:25:05.298Z,64.56
2024-03-17T10:26:05.299Z,63.85
2024-03-17T10:27:05.304Z,64.36
2024-03-17T10:28:05.306Z,64.11
2024-03-17T10:29:05.311Z,65.34
2024-03-17T10:30:05.313Z,65.20
2024-03-17T10:31:05.317Z,64.59
2024-03-17T10:32:05.318Z,63.85
2024-03-17T10:33:05.331Z,64.18
2024-03-17T10:34:11.600Z,63.57
2024-03-17T10:35:05.341Z,65.26
2024-03-17T10:36:05.343Z,65.26
2024-03-17T10:38:05.344Z,67.35
2024-03-17T10:39:05.345Z,65.71
2024-03-17T10:40:05.372Z,65.23
2024-03-17T10:41:05.347Z,64.90
2024-03-17T10:42:05.354Z,64.69
2024-03-17T10:43:05.364Z,64.15
2024-03-17T10:44:06.022Z,64.25
2024-03-17T10:45:05.359Z,64.39
2024-03-17T10:46:05.367Z,63.78
2024-03-17T10:47:05.365Z,64.39
2024-03-17T10:48:05.368Z,64.15
2024-03-17T10:49:05.370Z,63.44
2024-03-17T10:50:06.086Z,65.17
2024-03-17T10:51:05.384Z,65.10
2024-03-17T10:52:05.381Z,65.74
2024-03-17T10:53:05.391Z,65.54
2024-03-17T10:54:05.390Z,65.34
2024-03-17T10:55:05.387Z,67.10
2024-03-17T10:56:05.942Z,66.77
2024-03-17T10:57:05.397Z,67.04
2024-03-17T10:58:05.395Z,66.42
2024-03-17T10:59:05.397Z,65.61
2024-03-17T11:00:05.419Z,64.94
2024-03-17T11:01:05.413Z,64.12
2024-03-17T11:02:05.399Z,64.09
2024-03-17T11:03:05.405Z,62.16
2024-03-17T11:04:05.424Z,59.33
2024-03-17T11:05:05.430Z,59.10
2024-03-17T11:06:05.426Z,60.25
2024-03-17T11:07:05.410Z,60.66
2024-03-17T11:08:05.574Z,61.37
2024-03-17T11:09:05.418Z,61.65
2024-03-17T11:10:05.415Z,61.85
2024-03-17T11:11:05.418Z,62.29
2024-03-17T11:12:05.429Z,61.83
2024-03-17T11:13:05.426Z,61.83
2024-03-17T11:14:05.439Z,62.04
2024-03-17T11:15:05.438Z,63.06
2024-03-17T11:16:05.429Z,62.96
2024-03-17T11:17:05.428Z,62.65
2024-03-17T11:18:05.440Z,62.76
2024-03-17T11:19:05.437Z,63.16
2024-03-17T11:20:05.437Z,64.18
2024-03-17T11:21:05.442Z,65.10
2024-03-17T11:22:05.451Z,64.28
2024-03-17T11:23:05.437Z,61.94
2024-03-17T11:24:05.450Z,61.22
2024-03-17T11:25:05.452Z,62.99
2024-03-17T11:26:05.451Z,62.37
2024-03-17T11:27:05.444Z,63.19
2024-03-17T11:28:05.460Z,62.99
2024-03-17T11:29:05.468Z,61.66
2024-03-17T11:30:05.476Z,63.40
2024-03-17T11:31:05.446Z,62.88
2024-03-17T11:32:05.451Z,62.78
2024-03-17T11:33:05.452Z,62.68
2024-03-17T11:34:05.465Z,61.46
2024-03-17T11:35:05.452Z,60.94
2024-03-17T11:36:05.454Z,62.37
2024-03-17T11:37:05.455Z,60.64
2024-03-17T11:38:05.460Z,61.35
2024-03-17T11:39:05.454Z,61.87
2024-03-17T11:40:05.457Z,62.40
2024-03-17T11:41:05.459Z,62.58
2024-03-17T11:42:05.486Z,61.87
2024-03-17T11:43:05.456Z,61.35
2024-03-17T11:44:05.458Z,61.97
2024-03-17T11:45:05.464Z,62.17
2024-03-17T11:46:05.462Z,61.46
2024-03-17T11:47:09.311Z,61.97
2024-03-17T11:48:05.466Z,62.07
2024-03-17T11:49:05.459Z,62.48
2024-03-17T11:50:05.467Z,62.17
2024-03-17T11:51:05.459Z,63.90
2024-03-17T11:52:05.461Z,63.57
2024-03-17T11:53:05.463Z,63.26
2024-03-17T11:54:05.462Z,62.14
2024-03-17T11:55:05.462Z,62.37
2024-03-17T11:56:05.462Z,62.58
2024-03-17T11:57:05.461Z,62.07
2024-03-17T11:58:05.463Z,62.88
2024-03-17T11:59:05.460Z,63.09
2024-03-17T12:00:05.465Z,62.88
2024-03-17T12:01:05.461Z,62.58
2024-03-17T12:02:05.464Z,62.07
2024-03-17T12:03:05.456Z,62.48
2024-03-17T12:04:05.463Z,63.09
2024-03-17T12:05:05.563Z,63.09
2024-03-17T12:06:05.462Z,63.16
2024-03-17T12:07:05.460Z,63.67
2024-03-17T12:08:05.468Z,62.96
2024-03-17T12:09:05.462Z,62.24
2024-03-17T12:10:05.464Z,62.14
2024-03-17T12:11:05.463Z,62.32
2024-03-17T12:12:05.472Z,62.24
2024-03-17T12:13:05.460Z,63.13
2024-03-17T12:14:07.737Z,60.92
2024-03-17T12:15:05.460Z,62.62
2024-03-17T12:16:05.467Z,63.54
2024-03-17T12:17:05.473Z,62.04
2024-03-17T12:18:05.470Z,61.40
2024-03-17T12:19:05.457Z,61.80
2024-03-17T12:20:05.455Z,60.61
2024-03-17T12:21:05.463Z,61.50
2024-03-17T12:22:05.461Z,62.01
2024-03-17T12:23:05.476Z,61.78
2024-03-17T12:24:05.460Z,61.68
2024-03-17T12:25:05.470Z,61.88
2024-03-17T12:26:05.466Z,62.01
2024-03-17T12:27:05.474Z,61.91
2024-03-17T12:28:05.472Z,62.04
2024-03-17T12:29:05.471Z,62.55
2024-03-17T12:30:05.456Z,62.76
2024-03-17T12:31:05.938Z,62.32
2024-03-17T12:32:05.460Z,61.50
2024-03-17T12:33:05.458Z,62.01
2024-03-17T12:34:05.458Z,62.42
2024-03-17T12:35:05.461Z,61.98
2024-03-17T12:36:05.460Z,62.18
2024-03-17T12:37:05.470Z,60.14
2024-03-17T12:38:05.467Z,60.69
2024-03-17T12:39:05.459Z,60.41
2024-03-17T12:40:05.454Z,61.91
2024-03-17T12:41:05.456Z,61.80
2024-03-17T12:42:05.458Z,60.58
2024-03-17T12:43:05.464Z,61.19
2024-03-17T12:44:06.280Z,61.68
2024-03-17T12:45:05.454Z,61.98
2024-03-17T12:46:05.457Z,61.37
2024-03-17T12:47:05.453Z,60.69
2024-03-17T12:48:05.456Z,60.86
2024-03-17T12:49:05.453Z,61.16
2024-03-17T12:50:06.242Z,61.57
2024-03-17T12:51:05.463Z,61.98
2024-03-17T12:52:05.460Z,61.95
2024-03-17T12:53:05.462Z,60.25
2024-03-17T12:54:05.451Z,61.16
2024-03-17T12:55:05.455Z,60.76
2024-03-17T12:56:06.780Z,62.39
2024-03-17T12:57:05.477Z,61.80
2024-03-17T12:58:05.455Z,61.71
2024-03-17T12:59:05.456Z,60.69
2024-03-17T13:00:05.461Z,61.19